Flight Track Log - Related Links

Times and Time Zones

All times are in EDT time to prevent confusion due to time zone crossing. See the SKW5631 flight status page for this flight to view local times or setup timezone preferences in your user account.

Time Position Orientation Groundspeed Altitude Reporting Facility
EDT Latitude Longitude Course Direction KTS MPH feet Rate Location/Type
Sun 10:19:14 PM 37.6539 -122.3647 133° Southeast 176 203 25,000  Level Oakland Center
Sun 10:20:15 PM 37.6983 -122.3861 339° North 229 264 4,100 -9,344 Descending Oakland Center
Sun 10:21:00 PM 37.4347 -122.3707 113° Southeast  Level FlightAware Approximate
Sun 10:21:16 PM 37.7072 -122.4631 278° West 239 275 6,000  Level Oakland Center
Sun 10:22:00 PM 37.3599 -122.2385 136° Southeast  Level FlightAware Approximate
Sun 10:22:17 PM 37.6414 -122.5089 209° Southwest 274 315 8,100  Level Oakland Center
Sun 10:23:00 PM 37.2726 -122.1172 130° Southeast  Level FlightAware Approximate
Sun 10:23:18 PM 37.5511 -122.4753 164° South 294 338 10,800  Level Oakland Center
Sun 10:24:00 PM 37.1822 -121.9985 133° Southeast  Level FlightAware Approximate
Sun 10:24:19 PM 37.4853 -122.4019 139° Southeast 309 356 12,300  Level Oakland Center
Sun 10:25:20 PM 37.4167 -122.3272 139° Southeast 326 375 14,200 1,659 Climbing Oakland Center
Sun 10:26:22 PM 37.3464 -122.2494 139° Southeast 335 386 15,700 1,415 Climbing Oakland Center
Sun 10:27:23 PM 37.2719 -122.1689 139° Southeast 352 405 17,100 1,426 Climbing Oakland Center
Sun 10:28:24 PM 37.1964 -122.0872 139° Southeast 360 414 18,600 1,426 Climbing Oakland Center
Sun 10:29:25 PM 37.1208 -122.0033 138° Southeast 365 420 20,000 1,230 Climbing Oakland Center
Sun 10:30:26 PM 37.0433 -121.9197 139° Southeast 370 426 21,100 1,082 Climbing Oakland Center
Sun 10:31:27 PM 36.9650 -121.8342 139° Southeast 375 432 22,200 976 Climbing Oakland Center
Sun 10:32:29 PM 36.8825 -121.7475 140° Southeast 385 443 23,100 927 Climbing Oakland Center
Sun 10:33:30 PM 36.7961 -121.6550 139° Southeast 389 448 24,100 934 Climbing Oakland Center
Sun 10:34:31 PM 36.7142 -121.5656 139° Southeast 392 451 25,000 443 Climbing Oakland Center
Sun 10:35:32 PM 36.6108 -121.4550 139° Southeast 409 471 25,000  Level Oakland Center
Sun 10:36:33 PM 36.5239 -121.3611 139° Southeast 413 475 25,000  Level Oakland Center
Sun 10:37:34 PM 36.4364 -121.2692 140° Southeast 413 475 25,000  Level Oakland Center
Sun 10:38:35 PM 36.3497 -121.1756 139° Southeast 414 476 25,000  Level Oakland Center
Sun 10:39:37 PM 36.2631 -121.0808 139° Southeast 414 476 25,000  Level Oakland Center
Sun 10:40:38 PM 36.1761 -120.9914 140° Southeast 408 470 25,000  Level Oakland Center
Sun 10:41:39 PM 36.0911 -120.9011 139° Southeast 404 465 25,000  Level Oakland Center
Sun 10:42:40 PM 36.0067 -120.8108 139° Southeast 403 464 25,000  Level Oakland Center
Sun 10:43:41 PM 35.9225 -120.7222 140° Southeast 400 460 25,000  Level Oakland Center
Sun 10:44:43 PM 35.8383 -120.6336 140° Southeast 397 457 25,000  Level Oakland Center
Sun 10:45:44 PM 35.7542 -120.5469 140° Southeast 395 455 25,000  Level Oakland Center
Sun 10:47:56 PM 35.5650 -120.3514 140° Southeast 394 453 25,000 -124 Level Los Angeles Center
Sun 10:48:58 PM 35.4822 -120.2653 140° Southeast 392 451 24,600 -435 Descending Los Angeles Center
Sun 10:50:00 PM 35.3956 -120.1789 141° Southeast 399 459 24,100 -532 Descending Los Angeles Center
Sun 10:51:02 PM 35.2947 -120.0711 139° Southeast 398 458 23,500 -537 Descending Los Angeles Center
Sun 10:52:03 PM 35.2114 -119.9872 141° Southeast 391 450 23,000 -488 Descending Los Angeles Center
Sun 10:53:05 PM 35.1292 -119.9033 140° Southeast 386 444 22,500 -435 Descending Los Angeles Center
Sun 10:54:07 PM 35.0672 -119.8325 137° Southeast 383 441 22,100 -397 Descending Los Angeles Center
Sun 10:55:21 PM 34.9831 -119.7156 131° Southeast 382 440 21,600 -485 Descending Los Angeles Center
Sun 10:56:23 PM 34.8975 -119.6022 133° Southeast 380 437 21,000 -532 Descending Los Angeles Center
Sun 10:57:25 PM 34.8272 -119.5081 132° Southeast 376 433 20,500 -488 Descending Los Angeles Center
Sun 10:58:26 PM 34.7556 -119.4119 132° Southeast 381 438 20,000 -1,561 Descending Los Angeles Center
Sun 10:59:28 PM 34.6878 -119.3194 132° Southeast 369 425 17,300 -2,855 Descending Los Angeles Center
Sun 11:00:30 PM 34.6089 -119.2183 133° Southeast 367 422 14,100 -2,976 Descending Los Angeles Center
Sun 11:01:31 PM 34.5419 -119.1311 133° Southeast 356 410 11,200 -1,742 Descending Los Angeles Center
Sun 11:02:34 PM 34.4733 -119.0378 132° Southeast 294 338 10,500 -1,306 Descending Los Angeles Center
Sun 11:03:35 PM 34.4242 -118.9589 127° Southeast 293 337 8,500 -1,659 Descending Los Angeles Center
Sun 11:04:37 PM 34.3761 -118.8819 127° Southeast 286 329 7,100 -1,366 Descending Los Angeles Center
Sun 11:05:38 PM 34.3275 -118.8111 130° Southeast 274 315 5,700 -1,024 Descending Los Angeles Center
Sun 11:06:40 PM 34.2861 -118.7436 127° Southeast 254 292 5,000 -661 Descending Los Angeles Center
Sun 11:07:45 PM 34.2481 -118.6850 128° Southeast 230 265 4,300 -618 Descending Los Angeles Center
Sun 11:08:56 PM 34.2044 -118.6136 126° Southeast 223 257 3,600 -409 Descending Los Angeles Center
Sun 11:09:57 PM 34.2003 -118.5492 94° East 197 227 3,400 -390 Descending Los Angeles Center
Sun 11:10:59 PM 34.1997 -118.4725 90° East 192 221 2,800 -823 Descending Los Angeles Center
Sun 11:12:01 PM 34.1992 -118.4219 91° East 171 197 1,700 -823 Descending Los Angeles Center
Sun 11:13:03 PM 34.1983 -118.3739 91° East 149 171 1,100 -581 Descending Los Angeles Center

Login

Don't have an account? Register now (free) for customized features, flight alerts, and more!